sensor_id;sensor_type;location;lat;lon;timestamp;pressure;altitude;pressure_sealevel;temperature;humidity
82160;BME280;71734;50.876;7.372;2023-09-30T00:00:25;99956.63;;;14.63;76.52
82160;BME280;71734;50.876;7.372;2023-09-30T00:02:52;99955.22;;;14.55;76.52
82160;BME280;71734;50.876;7.372;2023-09-30T00:05:19;99962.44;;;14.51;76.69
82160;BME280;71734;50.876;7.372;2023-09-30T00:07:45;99960.59;;;14.53;77.00
82160;BME280;71734;50.876;7.372;2023-09-30T00:10:14;99960.34;;;14.59;76.51
82160;BME280;71734;50.876;7.372;2023-09-30T00:12:41;99942.97;;;14.49;76.33
82160;BME280;71734;50.876;7.372;2023-09-30T00:15:09;99942.09;;;14.49;76.31
82160;BME280;71734;50.876;7.372;2023-09-30T00:17:36;99945.97;;;14.40;76.56
82160;BME280;71734;50.876;7.372;2023-09-30T00:20:03;99957.78;;;14.33;76.61
82160;BME280;71734;50.876;7.372;2023-09-30T00:22:30;99972.03;;;14.32;76.68
82160;BME280;71734;50.876;7.372;2023-09-30T00:24:56;99966.63;;;14.35;76.50
82160;BME280;71734;50.876;7.372;2023-09-30T00:27:25;99970.41;;;14.28;76.25
82160;BME280;71734;50.876;7.372;2023-09-30T00:29:52;99980.72;;;14.38;76.40
82160;BME280;71734;50.876;7.372;2023-09-30T00:32:18;99986.09;;;14.37;76.39
82160;BME280;71734;50.876;7.372;2023-09-30T00:34:45;99989.78;;;14.33;77.00
82160;BME280;71734;50.876;7.372;2023-09-30T00:37:12;99992.25;;;14.39;76.77
82160;BME280;71734;50.876;7.372;2023-09-30T00:39:41;99987.72;;;14.41;76.89
82160;BME280;71734;50.876;7.372;2023-09-30T00:42:09;99983.19;;;14.43;77.10
82160;BME280;71734;50.876;7.372;2023-09-30T00:44:38;99983.19;;;14.43;77.02
82160;BME280;71734;50.876;7.372;2023-09-30T00:47:04;99976.41;;;14.34;77.27
82160;BME280;71734;50.876;7.372;2023-09-30T00:49:31;99976.41;;;14.34;77.32
82160;BME280;71734;50.876;7.372;2023-09-30T00:52:01;99979.06;;;14.34;77.05
82160;BME280;71734;50.876;7.372;2023-09-30T00:54:29;99975.31;;;14.40;77.58
82160;BME280;71734;50.876;7.372;2023-09-30T00:56:57;99973.56;;;14.39;77.54
82160;BME280;71734;50.876;7.372;2023-09-30T00:59:28;99960.56;;;14.30;77.19
82160;BME280;71734;50.876;7.372;2023-09-30T01:01:58;99961.06;;;14.41;76.33
82160;BME280;71734;50.876;7.372;2023-09-30T01:04:27;99961.19;;;14.38;75.74
82160;BME280;71734;50.876;7.372;2023-09-30T01:06:54;99970.53;;;14.25;76.67
82160;BME280;71734;50.876;7.372;2023-09-30T01:09:22;99974.94;;;14.26;76.86
82160;BME280;71734;50.876;7.372;2023-09-30T01:11:49;99968.06;;;14.19;77.07
82160;BME280;71734;50.876;7.372;2023-09-30T01:14:25;99973.03;;;14.29;76.98
82160;BME280;71734;50.876;7.372;2023-09-30T01:16:52;99970.97;;;14.37;76.48
82160;BME280;71734;50.876;7.372;2023-09-30T01:19:20;99976.50;;;14.31;77.19
82160;BME280;71734;50.876;7.372;2023-09-30T01:21:51;99975.28;;;14.17;77.32
82160;BME280;71734;50.876;7.372;2023-09-30T01:24:20;99981.41;;;14.19;76.76
82160;BME280;71734;50.876;7.372;2023-09-30T01:26:47;99984.66;;;14.27;76.30
82160;BME280;71734;50.876;7.372;2023-09-30T01:29:13;99991.63;;;14.06;75.85
82160;BME280;71734;50.876;7.372;2023-09-30T01:31:40;99989.59;;;13.89;75.30
82160;BME280;71734;50.876;7.372;2023-09-30T01:34:07;99990.63;;;13.85;75.84
82160;BME280;71734;50.876;7.372;2023-09-30T01:36:36;100010.91;;;13.89;76.12
82160;BME280;71734;50.876;7.372;2023-09-30T01:39:04;99993.97;;;13.90;76.52
82160;BME280;71734;50.876;7.372;2023-09-30T01:41:32;100001.03;;;13.91;77.18
82160;BME280;71734;50.876;7.372;2023-09-30T01:43:59;99988.47;;;13.95;77.27
82160;BME280;71734;50.876;7.372;2023-09-30T01:46:26;99977.19;;;13.88;77.59
82160;BME280;71734;50.876;7.372;2023-09-30T01:48:52;99995.59;;;13.94;76.62
82160;BME280;71734;50.876;7.372;2023-09-30T01:51:19;100000.44;;;13.83;75.72
82160;BME280;71734;50.876;7.372;2023-09-30T01:53:47;100014.91;;;13.76;75.16
82160;BME280;71734;50.876;7.372;2023-09-30T01:56:15;100013.19;;;13.74;75.73
82160;BME280;71734;50.876;7.372;2023-09-30T01:58:41;100012.41;;;13.72;75.44
82160;BME280;71734;50.876;7.372;2023-09-30T02:01:09;100015.06;;;13.72;75.64
82160;BME280;71734;50.876;7.372;2023-09-30T02:03:35;99999.47;;;13.61;76.08
82160;BME280;71734;50.876;7.372;2023-09-30T02:06:02;99990.44;;;13.65;76.56
82160;BME280;71734;50.876;7.372;2023-09-30T02:08:30;100000.75;;;13.74;76.36
82160;BME280;71734;50.876;7.372;2023-09-30T02:10:57;100006.19;;;13.71;76.25
82160;BME280;71734;50.876;7.372;2023-09-30T02:13:27;100013.59;;;13.62;76.36
82160;BME280;71734;50.876;7.372;2023-09-30T02:15:54;100017.25;;;13.59;76.38
82160;BME280;71734;50.876;7.372;2023-09-30T02:18:21;100013.75;;;13.57;76.69
82160;BME280;71734;50.876;7.372;2023-09-30T02:20:48;100020.75;;;13.61;76.93
82160;BME280;71734;50.876;7.372;2023-09-30T02:23:16;100034.16;;;13.58;76.48
82160;BME280;71734;50.876;7.372;2023-09-30T02:25:42;100014.91;;;13.50;75.87
82160;BME280;71734;50.876;7.372;2023-09-30T02:28:09;100019.38;;;13.22;74.81
82160;BME280;71734;50.876;7.372;2023-09-30T02:30:37;100025.44;;;13.27;76.16
82160;BME280;71734;50.876;7.372;2023-09-30T02:33:05;100028.59;;;13.38;76.79
82160;BME280;71734;50.876;7.372;2023-09-30T02:35:35;100026.63;;;13.44;76.83
82160;BME280;71734;50.876;7.372;2023-09-30T02:38:04;100020.72;;;13.35;77.31
82160;BME280;71734;50.876;7.372;2023-09-30T02:40:32;100024.16;;;13.38;76.01
82160;BME280;71734;50.876;7.372;2023-09-30T02:42:59;100018.34;;;12.96;77.12
82160;BME280;71734;50.876;7.372;2023-09-30T02:45:29;100015.16;;;13.15;77.03
82160;BME280;71734;50.876;7.372;2023-09-30T02:48:00;100019.56;;;12.86;76.96
82160;BME280;71734;50.876;7.372;2023-09-30T02:50:30;100017.72;;;12.88;77.20
82160;BME280;71734;50.876;7.372;2023-09-30T02:52:57;100019.09;;;13.01;77.93
82160;BME280;71734;50.876;7.372;2023-09-30T02:55:24;100010.00;;;13.09;78.80
82160;BME280;71734;50.876;7.372;2023-09-30T02:57:52;100019.13;;;13.29;78.05
82160;BME280;71734;50.876;7.372;2023-09-30T03:00:23;100023.69;;;13.26;77.29
82160;BME280;71734;50.876;7.372;2023-09-30T03:03:07;100009.56;;;12.94;77.71
82160;BME280;71734;50.876;7.372;2023-09-30T03:05:36;100016.09;;;13.14;78.45
82160;BME280;71734;50.876;7.372;2023-09-30T03:08:07;100013.31;;;13.17;78.62
82160;BME280;71734;50.876;7.372;2023-09-30T03:10:34;100031.53;;;13.30;79.18
82160;BME280;71734;50.876;7.372;2023-09-30T03:13:18;100021.84;;;13.28;78.50
82160;BME280;71734;50.876;7.372;2023-09-30T03:15:57;100041.81;;;13.41;77.66
82160;BME280;71734;50.876;7.372;2023-09-30T03:19:02;100032.09;;;13.40;77.28
82160;BME280;71734;50.876;7.372;2023-09-30T03:21:49;100026.56;;;13.46;77.51
82160;BME280;71734;50.876;7.372;2023-09-30T03:24:33;100018.31;;;13.27;79.13
82160;BME280;71734;50.876;7.372;2023-09-30T04:01:48;100034.00;;;13.63;79.43
82160;BME280;71734;50.876;7.372;2023-09-30T04:04:14;100019.00;;;13.60;79.66
82160;BME280;71734;50.876;7.372;2023-09-30T04:06:41;100011.91;;;13.61;79.98
82160;BME280;71734;50.876;7.372;2023-09-30T04:09:08;100018.00;;;13.64;79.76
82160;BME280;71734;50.876;7.372;2023-09-30T04:11:36;100031.97;;;13.71;79.61
82160;BME280;71734;50.876;7.372;2023-09-30T04:14:03;100020.44;;;13.70;79.80
82160;BME280;71734;50.876;7.372;2023-09-30T04:16:30;100023.25;;;13.66;80.06
82160;BME280;71734;50.876;7.372;2023-09-30T04:18:59;100025.06;;;13.65;79.45
82160;BME280;71734;50.876;7.372;2023-09-30T04:21:25;100023.91;;;13.46;80.28
82160;BME280;71734;50.876;7.372;2023-09-30T04:23:53;100022.25;;;13.16;82.38
82160;BME280;71734;50.876;7.372;2023-09-30T04:26:20;100021.88;;;13.26;81.16
82160;BME280;71734;50.876;7.372;2023-09-30T04:28:46;100018.34;;;13.26;80.75
82160;BME280;71734;50.876;7.372;2023-09-30T04:31:13;100028.72;;;13.05;82.31
82160;BME280;71734;50.876;7.372;2023-09-30T04:33:39;100019.66;;;12.83;81.71
82160;BME280;71734;50.876;7.372;2023-09-30T04:36:08;100018.78;;;12.83;82.97
82160;BME280;71734;50.876;7.372;2023-09-30T04:38:35;100029.50;;;13.11;82.00
82160;BME280;71734;50.876;7.372;2023-09-30T04:41:02;100016.31;;;13.04;82.27
82160;BME280;71734;50.876;7.372;2023-09-30T04:43:32;100015.22;;;13.13;81.92
82160;BME280;71734;50.876;7.372;2023-09-30T04:45:59;100031.03;;;13.18;81.10
82160;BME280;71734;50.876;7.372;2023-09-30T04:48:27;100029.06;;;13.24;81.03
82160;BME280;71734;50.876;7.372;2023-09-30T04:50:54;100028.09;;;13.27;81.30
82160;BME280;71734;50.876;7.372;2023-09-30T04:53:22;100034.94;;;13.34;81.32
82160;BME280;71734;50.876;7.372;2023-09-30T04:55:49;100038.19;;;13.43;80.50
82160;BME280;71734;50.876;7.372;2023-09-30T04:58:16;100035.88;;;13.33;80.91
82160;BME280;71734;50.876;7.372;2023-09-30T05:00:43;100037.81;;;13.28;81.68
82160;BME280;71734;50.876;7.372;2023-09-30T05:03:09;100030.84;;;13.24;80.57
82160;BME280;71734;50.876;7.372;2023-09-30T05:05:36;100044.75;;;13.04;82.42
82160;BME280;71734;50.876;7.372;2023-09-30T05:08:03;100040.28;;;13.04;82.47
82160;BME280;71734;50.876;7.372;2023-09-30T05:10:32;100057.84;;;13.12;82.08
82160;BME280;71734;50.876;7.372;2023-09-30T05:12:59;100056.72;;;12.89;81.64
82160;BME280;71734;50.876;7.372;2023-09-30T05:15:26;100059.06;;;13.00;81.90
82160;BME280;71734;50.876;7.372;2023-09-30T05:17:54;100061.25;;;12.86;81.92
82160;BME280;71734;50.876;7.372;2023-09-30T05:20:21;100058.19;;;12.99;79.88
82160;BME280;71734;50.876;7.372;2023-09-30T05:22:48;100055.22;;;13.10;80.86
82160;BME280;71734;50.876;7.372;2023-09-30T05:25:15;100069.56;;;12.75;80.49
82160;BME280;71734;50.876;7.372;2023-09-30T05:27:43;100067.44;;;12.86;81.34
82160;BME280;71734;50.876;7.372;2023-09-30T05:30:11;100067.00;;;13.01;80.51
82160;BME280;71734;50.876;7.372;2023-09-30T05:32:40;100067.09;;;12.98;80.39
82160;BME280;71734;50.876;7.372;2023-09-30T05:35:07;100073.28;;;12.99;79.53
82160;BME280;71734;50.876;7.372;2023-09-30T05:37:38;100075.72;;;13.07;80.18
82160;BME280;71734;50.876;7.372;2023-09-30T05:40:06;100074.78;;;12.78;80.64
82160;BME280;71734;50.876;7.372;2023-09-30T05:42:41;100069.56;;;12.75;81.05
82160;BME280;71734;50.876;7.372;2023-09-30T05:45:10;100087.97;;;12.83;80.54
82160;BME280;71734;50.876;7.372;2023-09-30T05:47:38;100077.59;;;12.72;79.84
82160;BME280;71734;50.876;7.372;2023-09-30T05:50:06;100081.09;;;12.43;80.22
82160;BME280;71734;50.876;7.372;2023-09-30T05:52:32;100074.78;;;12.15;82.17
82160;BME280;71734;50.876;7.372;2023-09-30T05:54:59;100086.13;;;12.54;81.38
82160;BME280;71734;50.876;7.372;2023-09-30T05:57:27;100096.16;;;12.75;80.64
82160;BME280;71734;50.876;7.372;2023-09-30T05:59:53;100087.44;;;12.70;79.94
82160;BME280;71734;50.876;7.372;2023-09-30T06:02:21;100082.03;;;12.73;80.52
82160;BME280;71734;50.876;7.372;2023-09-30T06:04:48;100083.50;;;12.83;80.35
82160;BME280;71734;50.876;7.372;2023-09-30T06:07:19;100080.38;;;12.69;79.80
82160;BME280;71734;50.876;7.372;2023-09-30T06:09:46;100098.75;;;12.46;81.02
82160;BME280;71734;50.876;7.372;2023-09-30T06:12:13;100078.81;;;12.30;81.95
82160;BME280;71734;50.876;7.372;2023-09-30T06:14:40;100091.25;;;12.29;81.67
82160;BME280;71734;50.876;7.372;2023-09-30T06:17:07;100087.41;;;12.39;80.85
82160;BME280;71734;50.876;7.372;2023-09-30T06:19:35;100090.28;;;12.32;82.37
82160;BME280;71734;50.876;7.372;2023-09-30T06:22:02;100088.56;;;12.31;81.75
82160;BME280;71734;50.876;7.372;2023-09-30T06:24:30;100095.34;;;12.41;79.89
82160;BME280;71734;50.876;7.372;2023-09-30T06:26:56;100086.22;;;11.83;82.94
82160;BME280;71734;50.876;7.372;2023-09-30T06:29:23;100090.53;;;11.89;83.44
82160;BME280;71734;50.876;7.372;2023-09-30T06:31:50;100097.44;;;11.96;83.41
82160;BME280;71734;50.876;7.372;2023-09-30T06:34:16;100107.53;;;12.16;82.71
82160;BME280;71734;50.876;7.372;2023-09-30T06:36:44;100101.97;;;12.25;82.70
82160;BME280;71734;50.876;7.372;2023-09-30T06:39:11;100100.91;;;12.32;81.84
82160;BME280;71734;50.876;7.372;2023-09-30T06:41:37;100098.19;;;12.35;81.22
82160;BME280;71734;50.876;7.372;2023-09-30T06:44:04;100093.91;;;12.60;80.51
82160;BME280;71734;50.876;7.372;2023-09-30T06:46:31;100094.81;;;12.28;80.70
82160;BME280;71734;50.876;7.372;2023-09-30T06:48:57;100100.16;;;12.27;82.62
82160;BME280;71734;50.876;7.372;2023-09-30T06:51:24;100108.13;;;12.27;82.73
82160;BME280;71734;50.876;7.372;2023-09-30T06:53:53;100110.19;;;12.16;82.73
82160;BME280;71734;50.876;7.372;2023-09-30T06:56:20;100112.19;;;12.07;82.20
82160;BME280;71734;50.876;7.372;2023-09-30T06:58:46;100115.72;;;12.06;81.79
82160;BME280;71734;50.876;7.372;2023-09-30T07:01:15;100114.88;;;12.06;83.25
82160;BME280;71734;50.876;7.372;2023-09-30T07:03:43;100123.88;;;12.00;83.29
82160;BME280;71734;50.876;7.372;2023-09-30T07:06:10;100124.56;;;12.08;83.69
82160;BME280;71734;50.876;7.372;2023-09-30T07:08:37;100124.69;;;12.69;81.77
82160;BME280;71734;50.876;7.372;2023-09-30T07:11:05;100128.31;;;12.66;80.21
82160;BME280;71734;50.876;7.372;2023-09-30T07:13:32;100133.13;;;12.84;80.79
82160;BME280;71734;50.876;7.372;2023-09-30T07:15:59;100141.94;;;12.86;81.37
82160;BME280;71734;50.876;7.372;2023-09-30T07:18:26;100131.75;;;13.00;81.05
82160;BME280;71734;50.876;7.372;2023-09-30T07:20:52;100139.31;;;12.54;82.06
82160;BME280;71734;50.876;7.372;2023-09-30T07:23:19;100121.72;;;13.12;80.05
82160;BME280;71734;50.876;7.372;2023-09-30T07:25:46;100118.28;;;13.07;80.28
82160;BME280;71734;50.876;7.372;2023-09-30T07:28:14;100119.78;;;12.86;82.01
82160;BME280;71734;50.876;7.372;2023-09-30T07:30:40;100135.75;;;12.55;82.98
82160;BME280;71734;50.876;7.372;2023-09-30T07:33:07;100143.66;;;12.23;84.93
82160;BME280;71734;50.876;7.372;2023-09-30T07:35:34;100144.06;;;12.07;83.98
82160;BME280;71734;50.876;7.372;2023-09-30T07:38:01;100155.66;;;12.39;82.74
82160;BME280;71734;50.876;7.372;2023-09-30T07:40:29;100145.09;;;12.36;83.75
82160;BME280;71734;50.876;7.372;2023-09-30T07:42:56;100146.84;;;12.69;82.82
82160;BME280;71734;50.876;7.372;2023-09-30T07:45:24;100142.25;;;13.07;81.17
82160;BME280;71734;50.876;7.372;2023-09-30T07:47:50;100157.03;;;13.17;81.02
82160;BME280;71734;50.876;7.372;2023-09-30T07:50:17;100158.47;;;12.97;81.17
82160;BME280;71734;50.876;7.372;2023-09-30T07:52:44;100160.88;;;13.07;82.08
82160;BME280;71734;50.876;7.372;2023-09-30T07:55:11;100167.00;;;13.09;81.27
82160;BME280;71734;50.876;7.372;2023-09-30T07:57:40;100177.00;;;13.00;81.85
82160;BME280;71734;50.876;7.372;2023-09-30T08:00:08;100176.75;;;13.10;80.88
82160;BME280;71734;50.876;7.372;2023-09-30T08:02:41;100170.63;;;13.06;82.31
82160;BME280;71734;50.876;7.372;2023-09-30T08:05:09;100165.31;;;13.06;82.48
82160;BME280;71734;50.876;7.372;2023-09-30T08:07:36;100176.28;;;12.95;81.98
82160;BME280;71734;50.876;7.372;2023-09-30T08:10:03;100163.53;;;13.07;81.48
82160;BME280;71734;50.876;7.372;2023-09-30T08:12:31;100160.38;;;12.92;83.06
82160;BME280;71734;50.876;7.372;2023-09-30T08:14:58;100150.94;;;12.82;83.47
82160;BME280;71734;50.876;7.372;2023-09-30T08:17:25;100159.91;;;12.78;82.75
82160;BME280;71734;50.876;7.372;2023-09-30T08:19:53;100162.78;;;13.01;82.57
82160;BME280;71734;50.876;7.372;2023-09-30T08:22:19;100177.38;;;13.19;82.59
82160;BME280;71734;50.876;7.372;2023-09-30T08:24:50;100181.38;;;13.03;82.70
82160;BME280;71734;50.876;7.372;2023-09-30T08:27:17;100181.53;;;12.97;83.06
82160;BME280;71734;50.876;7.372;2023-09-30T08:29:43;100197.81;;;13.19;81.86
82160;BME280;71734;50.876;7.372;2023-09-30T08:32:10;100196.53;;;13.32;82.09
82160;BME280;71734;50.876;7.372;2023-09-30T08:34:36;100208.00;;;13.63;80.56
82160;BME280;71734;50.876;7.372;2023-09-30T08:37:04;100204.22;;;13.41;81.27
82160;BME280;71734;50.876;7.372;2023-09-30T08:39:37;100207.53;;;13.49;80.85
82160;BME280;71734;50.876;7.372;2023-09-30T08:42:07;100207.38;;;13.55;80.23
82160;BME280;71734;50.876;7.372;2023-09-30T08:44:36;100210.16;;;13.80;80.76
82160;BME280;71734;50.876;7.372;2023-09-30T08:47:03;100209.91;;;13.87;79.74
82160;BME280;71734;50.876;7.372;2023-09-30T08:49:34;100220.00;;;14.06;79.25
82160;BME280;71734;50.876;7.372;2023-09-30T08:52:00;100216.16;;;14.14;78.85
82160;BME280;71734;50.876;7.372;2023-09-30T08:59:31;100219.16;;;14.04;80.27
82160;BME280;71734;50.876;7.372;2023-09-30T09:02:01;100213.88;;;13.74;80.18
82160;BME280;71734;50.876;7.372;2023-09-30T09:04:31;100208.84;;;13.65;81.61
82160;BME280;71734;50.876;7.372;2023-09-30T09:06:58;100217.94;;;13.58;80.79
82160;BME280;71734;50.876;7.372;2023-09-30T09:09:25;100214.19;;;13.65;81.46
82160;BME280;71734;50.876;7.372;2023-09-30T09:11:51;100212.66;;;13.57;81.34
82160;BME280;71734;50.876;7.372;2023-09-30T09:14:18;100219.31;;;13.71;81.90
82160;BME280;71734;50.876;7.372;2023-09-30T09:21:59;100201.00;;;14.16;78.94
82160;BME280;71734;50.876;7.372;2023-09-30T09:24:30;100193.16;;;14.64;77.01
82160;BME280;71734;50.876;7.372;2023-09-30T09:27:10;100174.41;;;15.15;76.58
82160;BME280;71734;50.876;7.372;2023-09-30T09:29:38;100171.31;;;15.26;75.54
82160;BME280;71734;50.876;7.372;2023-09-30T09:32:09;100175.38;;;15.13;76.65
82160;BME280;71734;50.876;7.372;2023-09-30T09:34:36;100174.59;;;15.11;76.41
82160;BME280;71734;50.876;7.372;2023-09-30T09:37:14;100181.63;;;14.88;77.00
82160;BME280;71734;50.876;7.372;2023-09-30T09:39:56;100168.34;;;14.87;77.20
82160;BME280;71734;50.876;7.372;2023-09-30T09:42:27;100183.47;;;14.86;76.58
82160;BME280;71734;50.876;7.372;2023-09-30T09:44:58;100175.09;;;14.72;76.81
82160;BME280;71734;50.876;7.372;2023-09-30T09:47:25;100187.22;;;14.56;77.47
82160;BME280;71734;50.876;7.372;2023-09-30T09:49:52;100177.88;;;14.69;78.29
82160;BME280;71734;50.876;7.372;2023-09-30T09:52:24;100178.22;;;14.83;77.08
82160;BME280;71734;50.876;7.372;2023-09-30T09:54:51;100186.66;;;14.71;76.72
82160;BME280;71734;50.876;7.372;2023-09-30T09:57:17;100188.53;;;15.19;75.36
82160;BME280;71734;50.876;7.372;2023-09-30T09:59:45;100194.66;;;15.21;75.28
82160;BME280;71734;50.876;7.372;2023-09-30T10:02:15;100195.50;;;14.98;75.61
82160;BME280;71734;50.876;7.372;2023-09-30T10:04:43;100180.91;;;15.31;75.21
82160;BME280;71734;50.876;7.372;2023-09-30T10:07:14;100178.41;;;15.52;74.42
82160;BME280;71734;50.876;7.372;2023-09-30T10:09:47;100176.00;;;16.53;71.12
82160;BME280;71734;50.876;7.372;2023-09-30T10:12:15;100188.13;;;17.22;70.43
82160;BME280;71734;50.876;7.372;2023-09-30T10:14:42;100184.41;;;16.44;69.51
82160;BME280;71734;50.876;7.372;2023-09-30T10:17:09;100186.13;;;16.03;71.90
82160;BME280;71734;50.876;7.372;2023-09-30T10:22:40;100200.69;;;15.51;74.42
82160;BME280;71734;50.876;7.372;2023-09-30T10:25:36;100206.03;;;15.49;74.36
82160;BME280;71734;50.876;7.372;2023-09-30T10:28:37;100196.28;;;15.73;73.88
82160;BME280;71734;50.876;7.372;2023-09-30T10:31:14;100195.00;;;16.89;70.33
82160;BME280;71734;50.876;7.372;2023-09-30T10:34:18;100203.97;;;17.47;67.95
82160;BME280;71734;50.876;7.372;2023-09-30T10:36:49;100201.09;;;17.89;64.81
82160;BME280;71734;50.876;7.372;2023-09-30T10:42:49;100210.97;;;18.24;62.25
82160;BME280;71734;50.876;7.372;2023-09-30T10:45:44;100209.47;;;18.72;62.89
82160;BME280;71734;50.876;7.372;2023-09-30T10:48:34;100195.09;;;18.20;64.97
82160;BME280;71734;50.876;7.372;2023-09-30T10:51:12;100199.69;;;18.35;63.13
82160;BME280;71734;50.876;7.372;2023-09-30T10:53:45;100190.88;;;17.78;64.56
82160;BME280;71734;50.876;7.372;2023-09-30T10:56:38;100186.69;;;17.73;64.55
82160;BME280;71734;50.876;7.372;2023-09-30T11:02:28;100193.31;;;18.73;61.51
82160;BME280;71734;50.876;7.372;2023-09-30T11:05:20;100189.91;;;18.70;62.20
82160;BME280;71734;50.876;7.372;2023-09-30T11:08:38;100201.28;;;18.58;61.37
82160;BME280;71734;50.876;7.372;2023-09-30T11:12:12;100203.75;;;19.29;60.66
82160;BME280;71734;50.876;7.372;2023-09-30T11:21:08;100192.47;;;20.18;58.01
82160;BME280;71734;50.876;7.372;2023-09-30T11:23:45;100179.81;;;19.89;58.12
82160;BME280;71734;50.876;7.372;2023-09-30T11:26:11;100182.44;;;19.59;60.75
82160;BME280;71734;50.876;7.372;2023-09-30T11:28:44;100186.00;;;19.75;59.38
82160;BME280;71734;50.876;7.372;2023-09-30T11:31:14;100185.75;;;19.80;57.75
82160;BME280;71734;50.876;7.372;2023-09-30T11:33:54;100185.38;;;20.02;56.46
82160;BME280;71734;50.876;7.372;2023-09-30T11:36:24;100177.75;;;19.63;58.23
82160;BME280;71734;50.876;7.372;2023-09-30T11:38:51;100179.47;;;19.64;56.67
82160;BME280;71734;50.876;7.372;2023-09-30T11:41:20;100175.31;;;20.21;57.22
82160;BME280;71734;50.876;7.372;2023-09-30T11:44:01;100159.09;;;19.60;57.63
82160;BME280;71734;50.876;7.372;2023-09-30T11:46:30;100161.75;;;20.07;55.63
82160;BME280;71734;50.876;7.372;2023-09-30T11:48:59;100163.56;;;20.22;54.67
82160;BME280;71734;50.876;7.372;2023-09-30T11:51:29;100163.47;;;20.23;54.27
82160;BME280;71734;50.876;7.372;2023-09-30T11:53:56;100159.66;;;20.43;53.51
82160;BME280;71734;50.876;7.372;2023-09-30T11:56:24;100160.56;;;19.97;56.12
82160;BME280;71734;50.876;7.372;2023-09-30T11:58:54;100160.22;;;20.03;56.61
82160;BME280;71734;50.876;7.372;2023-09-30T12:01:24;100163.19;;;20.29;54.54
82160;BME280;71734;50.876;7.372;2023-09-30T12:03:51;100161.19;;;20.47;54.11
82160;BME280;71734;50.876;7.372;2023-09-30T12:06:19;100157.63;;;21.20;52.81
82160;BME280;71734;50.876;7.372;2023-09-30T12:08:49;100144.63;;;21.41;52.65
82160;BME280;71734;50.876;7.372;2023-09-30T12:11:17;100141.19;;;20.95;54.32
82160;BME280;71734;50.876;7.372;2023-09-30T12:13:45;100150.97;;;21.54;54.87
82160;BME280;71734;50.876;7.372;2023-09-30T12:16:15;100141.25;;;21.52;54.40
82160;BME280;71734;50.876;7.372;2023-09-30T12:18:44;100145.50;;;21.56;54.69
82160;BME280;71734;50.876;7.372;2023-09-30T12:21:11;100145.50;;;21.42;54.99
82160;BME280;71734;50.876;7.372;2023-09-30T12:23:39;100154.50;;;21.69;53.63
82160;BME280;71734;50.876;7.372;2023-09-30T12:26:07;100147.44;;;21.25;54.32
82160;BME280;71734;50.876;7.372;2023-09-30T12:28:34;100134.63;;;21.43;54.13
82160;BME280;71734;50.876;7.372;2023-09-30T12:31:01;100137.00;;;21.62;54.16
82160;BME280;71734;50.876;7.372;2023-09-30T12:33:28;100129.13;;;21.86;51.72
82160;BME280;71734;50.876;7.372;2023-09-30T12:35:55;100125.78;;;21.96;52.30
82160;BME280;71734;50.876;7.372;2023-09-30T12:38:25;100114.53;;;21.75;52.76
82160;BME280;71734;50.876;7.372;2023-09-30T12:40:53;100096.06;;;21.82;51.53
82160;BME280;71734;50.876;7.372;2023-09-30T12:43:21;100091.34;;;21.86;53.15
82160;BME280;71734;50.876;7.372;2023-09-30T12:45:48;100082.72;;;22.07;48.29
82160;BME280;71734;50.876;7.372;2023-09-30T12:48:15;100076.63;;;21.77;52.07
82160;BME280;71734;50.876;7.372;2023-09-30T12:50:43;100083.47;;;21.68;51.62
82160;BME280;71734;50.876;7.372;2023-09-30T12:53:10;100085.81;;;21.60;51.35
82160;BME280;71734;50.876;7.372;2023-09-30T12:55:39;100089.34;;;21.34;51.55
82160;BME280;71734;50.876;7.372;2023-09-30T12:58:05;100110.44;;;21.27;53.34
82160;BME280;71734;50.876;7.372;2023-09-30T13:00:37;100113.88;;;21.01;52.88
82160;BME280;71734;50.876;7.372;2023-09-30T13:03:04;100118.69;;;20.82;53.69
82160;BME280;71734;50.876;7.372;2023-09-30T13:05:30;100111.50;;;20.53;54.15
82160;BME280;71734;50.876;7.372;2023-09-30T13:07:57;100105.81;;;20.27;55.74
82160;BME280;71734;50.876;7.372;2023-09-30T13:10:24;100102.72;;;20.19;55.03
82160;BME280;71734;50.876;7.372;2023-09-30T13:12:51;100107.25;;;20.03;56.33
82160;BME280;71734;50.876;7.372;2023-09-30T13:15:30;100105.22;;;20.22;56.27
82160;BME280;71734;50.876;7.372;2023-09-30T13:18:11;100095.59;;;20.18;56.61
82160;BME280;71734;50.876;7.372;2023-09-30T13:20:44;100105.66;;;20.30;55.36
82160;BME280;71734;50.876;7.372;2023-09-30T13:23:10;100105.22;;;20.22;57.26
82160;BME280;71734;50.876;7.372;2023-09-30T13:25:37;100098.56;;;20.29;54.28
82160;BME280;71734;50.876;7.372;2023-09-30T13:28:03;100089.19;;;20.05;52.35
82160;BME280;71734;50.876;7.372;2023-09-30T13:30:31;100094.44;;;19.77;53.24
82160;BME280;71734;50.876;7.372;2023-09-30T13:32:58;100083.25;;;19.69;56.67
82160;BME280;71734;50.876;7.372;2023-09-30T13:35:27;100086.44;;;19.91;56.65
82160;BME280;71734;50.876;7.372;2023-09-30T13:37:54;100073.59;;;19.96;55.54
82160;BME280;71734;50.876;7.372;2023-09-30T13:40:21;100086.28;;;19.78;52.82
82160;BME280;71734;50.876;7.372;2023-09-30T13:42:47;100088.03;;;19.79;53.68
82160;BME280;71734;50.876;7.372;2023-09-30T13:45:14;100093.03;;;19.85;53.30
82160;BME280;71734;50.876;7.372;2023-09-30T13:47:42;100086.91;;;19.68;53.00
82160;BME280;71734;50.876;7.372;2023-09-30T13:50:09;100077.94;;;19.36;55.83
82160;BME280;71734;50.876;7.372;2023-09-30T13:52:36;100078.50;;;19.58;54.20
82160;BME280;71734;50.876;7.372;2023-09-30T13:55:04;100061.59;;;19.72;53.24
82160;BME280;71734;50.876;7.372;2023-09-30T13:57:34;100066.69;;;19.76;54.28
82160;BME280;71734;50.876;7.372;2023-09-30T14:00:00;100066.66;;;19.29;53.05
82160;BME280;71734;50.876;7.372;2023-09-30T14:02:27;100061.53;;;19.25;53.21